sensor_id;sensor_type;location;lat;lon;timestamp;temperature;humidity
1181;DHT22;579;52.046;8.532;2023-04-06T00:00:11;3.30;1.00
1181;DHT22;579;52.046;8.532;2023-04-06T00:02:38;3.30;1.00
1181;DHT22;579;52.046;8.532;2023-04-06T00:05:05;3.30;1.00
1181;DHT22;579;52.046;8.532;2023-04-06T00:07:31;3.10;1.00
1181;DHT22;579;52.046;8.532;2023-04-06T00:09:58;3.20;1.00
1181;DHT22;579;52.046;8.532;2023-04-06T00:12:25;3.30;1.00
1181;DHT22;579;52.046;8.532;2023-04-06T00:17:31;3.30;1.00
1181;DHT22;579;52.046;8.532;2023-04-06T00:19:57;2.30;1.00
1181;DHT22;579;52.046;8.532;2023-04-06T00:22:24;3.30;1.00
1181;DHT22;579;52.046;8.532;2023-04-06T00:24:51;3.40;1.00
1181;DHT22;579;52.046;8.532;2023-04-06T00:27:17;3.10;1.00
1181;DHT22;579;52.046;8.532;2023-04-06T00:29:44;3.20;1.00
1181;DHT22;579;52.046;8.532;2023-04-06T00:32:10;3.20;1.00
1181;DHT22;579;52.046;8.532;2023-04-06T00:39:14;1.10;1.00
1181;DHT22;579;52.046;8.532;2023-04-06T00:41:45;2.80;1.00
1181;DHT22;579;52.046;8.532;2023-04-06T00:44:15;2.80;1.00
1181;DHT22;579;52.046;8.532;2023-04-06T00:46:41;2.90;1.00
1181;DHT22;579;52.046;8.532;2023-04-06T00:49:07;2.80;1.00
1181;DHT22;579;52.046;8.532;2023-04-06T00:51:34;2.90;1.00
1181;DHT22;579;52.046;8.532;2023-04-06T00:54:00;3.00;1.00
1181;DHT22;579;52.046;8.532;2023-04-06T01:01:32;2.90;1.00
1181;DHT22;579;52.046;8.532;2023-04-06T01:03:59;3.00;1.00
1181;DHT22;579;52.046;8.532;2023-04-06T01:06:25;3.10;1.00
1181;DHT22;579;52.046;8.532;2023-04-06T01:08:51;2.90;1.00
1181;DHT22;579;52.046;8.532;2023-04-06T01:11:18;2.70;1.00
1181;DHT22;579;52.046;8.532;2023-04-06T01:13:44;2.80;1.00
1181;DHT22;579;52.046;8.532;2023-04-06T01:16:10;2.60;1.00
1181;DHT22;579;52.046;8.532;2023-04-06T01:23:43;2.60;1.00
1181;DHT22;579;52.046;8.532;2023-04-06T01:26:10;2.70;1.00
1181;DHT22;579;52.046;8.532;2023-04-06T01:28:37;2.70;1.00
1181;DHT22;579;52.046;8.532;2023-04-06T01:31:03;2.70;1.00
1181;DHT22;579;52.046;8.532;2023-04-06T01:33:30;2.70;1.00
1181;DHT22;579;52.046;8.532;2023-04-06T01:35:56;2.60;1.00
1181;DHT22;579;52.046;8.532;2023-04-06T01:38:22;2.50;1.00
1181;DHT22;579;52.046;8.532;2023-04-06T01:45:52;2.50;1.00
1181;DHT22;579;52.046;8.532;2023-04-06T01:48:18;2.60;1.00
1181;DHT22;579;52.046;8.532;2023-04-06T01:50:45;2.50;1.00
1181;DHT22;579;52.046;8.532;2023-04-06T01:53:11;2.50;1.00
1181;DHT22;579;52.046;8.532;2023-04-06T01:55:37;2.50;1.00
1181;DHT22;579;52.046;8.532;2023-04-06T01:58:03;2.50;1.00
1181;DHT22;579;52.046;8.532;2023-04-06T02:00:30;2.50;1.00
1181;DHT22;579;52.046;8.532;2023-04-06T02:05:44;2.50;1.00
1181;DHT22;579;52.046;8.532;2023-04-06T02:08:10;2.50;1.00
1181;DHT22;579;52.046;8.532;2023-04-06T02:10:36;2.30;1.00
1181;DHT22;579;52.046;8.532;2023-04-06T02:13:02;2.50;1.00
1181;DHT22;579;52.046;8.532;2023-04-06T02:15:29;2.50;1.00
1181;DHT22;579;52.046;8.532;2023-04-06T02:17:55;2.40;1.00
1181;DHT22;579;52.046;8.532;2023-04-06T02:20:21;2.60;1.00
1181;DHT22;579;52.046;8.532;2023-04-06T02:27:52;2.50;1.00
1181;DHT22;579;52.046;8.532;2023-04-06T02:30:18;2.40;1.00
1181;DHT22;579;52.046;8.532;2023-04-06T02:32:45;2.40;1.00
1181;DHT22;579;52.046;8.532;2023-04-06T02:35:11;2.30;1.00
1181;DHT22;579;52.046;8.532;2023-04-06T02:37:38;2.40;1.00
1181;DHT22;579;52.046;8.532;2023-04-06T02:40:05;2.40;1.00
1181;DHT22;579;52.046;8.532;2023-04-06T02:42:31;2.50;1.00
1181;DHT22;579;52.046;8.532;2023-04-06T02:50:05;2.40;1.00
1181;DHT22;579;52.046;8.532;2023-04-06T02:52:32;2.40;1.00
1181;DHT22;579;52.046;8.532;2023-04-06T02:54:58;2.40;1.00
1181;DHT22;579;52.046;8.532;2023-04-06T02:57:24;2.30;1.00
1181;DHT22;579;52.046;8.532;2023-04-06T02:59:51;2.30;1.00
1181;DHT22;579;52.046;8.532;2023-04-06T03:02:17;1.90;1.00
1181;DHT22;579;52.046;8.532;2023-04-06T03:04:44;2.20;1.00
1181;DHT22;579;52.046;8.532;2023-04-06T03:12:03;2.20;1.00
1181;DHT22;579;52.046;8.532;2023-04-06T03:14:30;2.10;1.00
1181;DHT22;579;52.046;8.532;2023-04-06T03:16:56;2.20;1.00
1181;DHT22;579;52.046;8.532;2023-04-06T03:19:22;2.20;1.00
1181;DHT22;579;52.046;8.532;2023-04-06T03:21:49;2.30;1.00
1181;DHT22;579;52.046;8.532;2023-04-06T03:24:15;2.30;1.00
1181;DHT22;579;52.046;8.532;2023-04-06T03:26:41;2.10;1.00
1181;DHT22;579;52.046;8.532;2023-04-06T03:34:11;2.10;1.00
1181;DHT22;579;52.046;8.532;2023-04-06T03:36:37;2.10;1.00
1181;DHT22;579;52.046;8.532;2023-04-06T03:39:06;2.10;1.00
1181;DHT22;579;52.046;8.532;2023-04-06T03:41:33;2.00;1.00
1181;DHT22;579;52.046;8.532;2023-04-06T03:44:00;2.00;1.00
1181;DHT22;579;52.046;8.532;2023-04-06T03:46:26;2.00;1.00
1181;DHT22;579;52.046;8.532;2023-04-06T03:48:52;2.90;1.00
1181;DHT22;579;52.046;8.532;2023-04-06T03:56:28;2.10;1.00
1181;DHT22;579;52.046;8.532;2023-04-06T03:58:55;2.10;1.00
1181;DHT22;579;52.046;8.532;2023-04-06T04:01:21;2.00;1.00
1181;DHT22;579;52.046;8.532;2023-04-06T04:03:47;1.90;1.00
1181;DHT22;579;52.046;8.532;2023-04-06T04:06:13;1.90;1.00
1181;DHT22;579;52.046;8.532;2023-04-06T04:08:40;2.00;1.00
1181;DHT22;579;52.046;8.532;2023-04-06T04:11:06;1.90;1.00
1181;DHT22;579;52.046;8.532;2023-04-06T04:18:33;1.90;1.00
1181;DHT22;579;52.046;8.532;2023-04-06T04:21:00;1.90;1.00
1181;DHT22;579;52.046;8.532;2023-04-06T04:23:26;1.90;1.00
1181;DHT22;579;52.046;8.532;2023-04-06T04:25:52;2.00;1.00
1181;DHT22;579;52.046;8.532;2023-04-06T04:28:18;1.90;1.00
1181;DHT22;579;52.046;8.532;2023-04-06T04:30:45;1.90;1.00
1181;DHT22;579;52.046;8.532;2023-04-06T04:33:11;2.20;1.00
1181;DHT22;579;52.046;8.532;2023-04-06T04:38:18;2.00;1.00
1181;DHT22;579;52.046;8.532;2023-04-06T04:40:45;2.00;1.00
1181;DHT22;579;52.046;8.532;2023-04-06T04:43:11;1.90;1.00
1181;DHT22;579;52.046;8.532;2023-04-06T04:45:37;2.00;1.00
1181;DHT22;579;52.046;8.532;2023-04-06T04:48:04;1.90;1.00
1181;DHT22;579;52.046;8.532;2023-04-06T04:50:30;1.80;1.00
1181;DHT22;579;52.046;8.532;2023-04-06T04:52:57;1.80;1.00
1181;DHT22;579;52.046;8.532;2023-04-06T05:00:28;1.80;1.00
1181;DHT22;579;52.046;8.532;2023-04-06T05:02:55;1.80;1.00
1181;DHT22;579;52.046;8.532;2023-04-06T05:05:24;1.80;1.00
1181;DHT22;579;52.046;8.532;2023-04-06T05:07:50;2.00;1.00
1181;DHT22;579;52.046;8.532;2023-04-06T05:10:16;1.90;1.00
1181;DHT22;579;52.046;8.532;2023-04-06T05:12:43;1.90;1.00
1181;DHT22;579;52.046;8.532;2023-04-06T05:15:09;1.80;1.00
1181;DHT22;579;52.046;8.532;2023-04-06T05:22:42;1.80;1.00
1181;DHT22;579;52.046;8.532;2023-04-06T05:25:08;1.90;1.00
1181;DHT22;579;52.046;8.532;2023-04-06T05:27:35;1.90;1.00
1181;DHT22;579;52.046;8.532;2023-04-06T05:30:01;2.10;1.00
1181;DHT22;579;52.046;8.532;2023-04-06T05:32:27;2.00;1.00
1181;DHT22;579;52.046;8.532;2023-04-06T05:34:54;2.10;1.00
1181;DHT22;579;52.046;8.532;2023-04-06T05:37:21;2.00;1.00
1181;DHT22;579;52.046;8.532;2023-04-06T05:44:54;2.20;1.00
1181;DHT22;579;52.046;8.532;2023-04-06T05:47:21;2.30;1.00
1181;DHT22;579;52.046;8.532;2023-04-06T05:49:47;2.20;1.00
1181;DHT22;579;52.046;8.532;2023-04-06T05:52:13;2.40;1.00
1181;DHT22;579;52.046;8.532;2023-04-06T05:54:40;2.60;1.00
1181;DHT22;579;52.046;8.532;2023-04-06T05:57:06;2.50;1.00
1181;DHT22;579;52.046;8.532;2023-04-06T05:59:32;2.50;1.00
1181;DHT22;579;52.046;8.532;2023-04-06T06:07:04;2.70;1.00
1181;DHT22;579;52.046;8.532;2023-04-06T06:09:31;2.90;1.00
1181;DHT22;579;52.046;8.532;2023-04-06T06:12:00;3.20;1.00
1181;DHT22;579;52.046;8.532;2023-04-06T06:14:27;3.10;1.00
1181;DHT22;579;52.046;8.532;2023-04-06T06:16:54;3.30;1.00
1181;DHT22;579;52.046;8.532;2023-04-06T06:19:20;3.30;1.00
1181;DHT22;579;52.046;8.532;2023-04-06T06:21:47;3.40;1.00
1181;DHT22;579;52.046;8.532;2023-04-06T06:29:19;3.90;1.00
1181;DHT22;579;52.046;8.532;2023-04-06T06:31:46;3.80;1.00
1181;DHT22;579;52.046;8.532;2023-04-06T06:34:12;3.90;1.00
1181;DHT22;579;52.046;8.532;2023-04-06T06:36:38;4.00;1.00
1181;DHT22;579;52.046;8.532;2023-04-06T06:39:05;4.10;1.00
1181;DHT22;579;52.046;8.532;2023-04-06T06:41:31;4.20;1.00
1181;DHT22;579;52.046;8.532;2023-04-06T06:43:57;4.40;1.00
1181;DHT22;579;52.046;8.532;2023-04-06T06:52:47;5.00;1.00
1181;DHT22;579;52.046;8.532;2023-04-06T06:55:14;5.20;1.00
1181;DHT22;579;52.046;8.532;2023-04-06T06:57:41;5.40;1.00
1181;DHT22;579;52.046;8.532;2023-04-06T07:00:08;5.50;1.00
1181;DHT22;579;52.046;8.532;2023-04-06T07:02:36;5.70;1.00
1181;DHT22;579;52.046;8.532;2023-04-06T07:05:03;5.90;1.00
1181;DHT22;579;52.046;8.532;2023-04-06T07:07:31;6.20;1.00
1181;DHT22;579;52.046;8.532;2023-04-06T07:15:03;6.50;1.00
1181;DHT22;579;52.046;8.532;2023-04-06T07:17:30;6.80;1.00
1181;DHT22;579;52.046;8.532;2023-04-06T07:19:56;6.70;1.00
1181;DHT22;579;52.046;8.532;2023-04-06T07:22:23;7.20;1.00
1181;DHT22;579;52.046;8.532;2023-04-06T07:24:49;7.40;1.00
1181;DHT22;579;52.046;8.532;2023-04-06T07:27:15;7.70;1.00
1181;DHT22;579;52.046;8.532;2023-04-06T07:29:42;7.70;1.00
1181;DHT22;579;52.046;8.532;2023-04-06T07:34:49;8.20;1.00
1181;DHT22;579;52.046;8.532;2023-04-06T07:37:15;8.30;1.00
1181;DHT22;579;52.046;8.532;2023-04-06T07:39:41;8.30;1.00
1181;DHT22;579;52.046;8.532;2023-04-06T07:42:08;8.40;1.00
1181;DHT22;579;52.046;8.532;2023-04-06T07:44:34;8.70;1.00
1181;DHT22;579;52.046;8.532;2023-04-06T07:47:00;8.90;1.00
1181;DHT22;579;52.046;8.532;2023-04-06T07:49:27;8.80;1.00
1181;DHT22;579;52.046;8.532;2023-04-06T07:56:33;9.50;1.00
1181;DHT22;579;52.046;8.532;2023-04-06T07:58:59;9.70;1.00
1181;DHT22;579;52.046;8.532;2023-04-06T08:01:26;9.70;1.00
1181;DHT22;579;52.046;8.532;2023-04-06T08:03:54;9.90;1.00
1181;DHT22;579;52.046;8.532;2023-04-06T08:06:21;10.00;1.00
1181;DHT22;579;52.046;8.532;2023-04-06T08:08:47;10.30;1.00
1181;DHT22;579;52.046;8.532;2023-04-06T08:11:14;10.60;1.00
1181;DHT22;579;52.046;8.532;2023-04-06T08:18:05;11.20;1.00
1181;DHT22;579;52.046;8.532;2023-04-06T08:20:31;11.50;1.00
1181;DHT22;579;52.046;8.532;2023-04-06T08:22:58;11.60;1.00
1181;DHT22;579;52.046;8.532;2023-04-06T08:25:24;11.80;1.00
1181;DHT22;579;52.046;8.532;2023-04-06T08:27:50;11.90;1.00
1181;DHT22;579;52.046;8.532;2023-04-06T08:30:17;12.10;1.00
1181;DHT22;579;52.046;8.532;2023-04-06T08:32:44;12.30;1.00
1181;DHT22;579;52.046;8.532;2023-04-06T08:35:12;12.40;1.00
1181;DHT22;579;52.046;8.532;2023-04-06T08:42:10;12.50;1.00
1181;DHT22;579;52.046;8.532;2023-04-06T08:44:37;12.90;1.00
1181;DHT22;579;52.046;8.532;2023-04-06T08:47:04;13.20;1.00
1181;DHT22;579;52.046;8.532;2023-04-06T08:49:32;13.40;1.00
1181;DHT22;579;52.046;8.532;2023-04-06T08:51:59;13.60;1.00
1181;DHT22;579;52.046;8.532;2023-04-06T08:54:27;13.70;1.00
1181;DHT22;579;52.046;8.532;2023-04-06T08:56:53;14.10;1.00
1181;DHT22;579;52.046;8.532;2023-04-06T09:02:03;15.80;1.00
1181;DHT22;579;52.046;8.532;2023-04-06T09:04:31;13.90;1.00
1181;DHT22;579;52.046;8.532;2023-04-06T09:06:58;14.10;1.00
1181;DHT22;579;52.046;8.532;2023-04-06T09:09:24;14.00;1.00
1181;DHT22;579;52.046;8.532;2023-04-06T09:11:51;14.20;1.00
1181;DHT22;579;52.046;8.532;2023-04-06T09:14:33;14.20;1.00
1181;DHT22;579;52.046;8.532;2023-04-06T09:17:01;14.30;1.00
1181;DHT22;579;52.046;8.532;2023-04-06T09:24:39;15.00;1.00
1181;DHT22;579;52.046;8.532;2023-04-06T09:27:06;15.00;1.00
1181;DHT22;579;52.046;8.532;2023-04-06T09:29:32;15.40;1.00
1181;DHT22;579;52.046;8.532;2023-04-06T09:32:04;15.40;1.00
1181;DHT22;579;52.046;8.532;2023-04-06T09:34:30;15.60;1.00
1181;DHT22;579;52.046;8.532;2023-04-06T09:36:57;15.60;1.00
1181;DHT22;579;52.046;8.532;2023-04-06T09:39:24;15.60;1.00
1181;DHT22;579;52.046;8.532;2023-04-06T09:46:56;15.30;1.00
1181;DHT22;579;52.046;8.532;2023-04-06T09:49:23;15.70;1.00
1181;DHT22;579;52.046;8.532;2023-04-06T09:51:54;16.10;1.00
1181;DHT22;579;52.046;8.532;2023-04-06T09:54:23;16.10;1.00
1181;DHT22;579;52.046;8.532;2023-04-06T09:56:58;16.40;1.00
1181;DHT22;579;52.046;8.532;2023-04-06T09:59:35;16.70;1.00
1181;DHT22;579;52.046;8.532;2023-04-06T10:02:05;16.80;1.00
1181;DHT22;579;52.046;8.532;2023-04-06T10:09:40;16.20;1.00
1181;DHT22;579;52.046;8.532;2023-04-06T10:12:08;15.70;1.00
1181;DHT22;579;52.046;8.532;2023-04-06T10:14:35;15.40;1.00
1181;DHT22;579;52.046;8.532;2023-04-06T10:17:03;13.50;1.00
1181;DHT22;579;52.046;8.532;2023-04-06T10:19:37;16.60;1.00
1181;DHT22;579;52.046;8.532;2023-04-06T10:22:08;14.50;1.00
1181;DHT22;579;52.046;8.532;2023-04-06T10:24:36;15.20;1.00
1181;DHT22;579;52.046;8.532;2023-04-06T10:32:13;14.90;1.00
1181;DHT22;579;52.046;8.532;2023-04-06T10:34:39;14.80;1.00
1181;DHT22;579;52.046;8.532;2023-04-06T10:37:13;14.90;1.00
1181;DHT22;579;52.046;8.532;2023-04-06T10:39:46;14.80;1.00
1181;DHT22;579;52.046;8.532;2023-04-06T10:42:13;15.10;1.00
1181;DHT22;579;52.046;8.532;2023-04-06T10:44:42;15.30;1.00
1181;DHT22;579;52.046;8.532;2023-04-06T10:47:16;15.80;1.00
1181;DHT22;579;52.046;8.532;2023-04-06T10:54:12;16.20;1.00
1181;DHT22;579;52.046;8.532;2023-04-06T10:56:39;16.00;1.00
1181;DHT22;579;52.046;8.532;2023-04-06T10:59:06;15.70;1.00
1181;DHT22;579;52.046;8.532;2023-04-06T11:01:32;15.80;1.00
1181;DHT22;579;52.046;8.532;2023-04-06T11:03:58;16.10;1.00
1181;DHT22;579;52.046;8.532;2023-04-06T11:06:26;16.30;1.00
1181;DHT22;579;52.046;8.532;2023-04-06T11:08:55;16.00;1.00
1181;DHT22;579;52.046;8.532;2023-04-06T11:16:28;15.40;1.00
1181;DHT22;579;52.046;8.532;2023-04-06T11:18:57;15.40;1.00
1181;DHT22;579;52.046;8.532;2023-04-06T11:21:35;15.20;1.00
1181;DHT22;579;52.046;8.532;2023-04-06T11:24:08;15.20;1.00
1181;DHT22;579;52.046;8.532;2023-04-06T11:26:39;15.80;1.00
1181;DHT22;579;52.046;8.532;2023-04-06T11:29:07;16.00;1.00
1181;DHT22;579;52.046;8.532;2023-04-06T11:31:41;16.40;1.00
1181;DHT22;579;52.046;8.532;2023-04-06T11:39:18;16.80;1.00
1181;DHT22;579;52.046;8.532;2023-04-06T11:41:47;16.50;1.00
1181;DHT22;579;52.046;8.532;2023-04-06T11:44:14;16.60;1.00
1181;DHT22;579;52.046;8.532;2023-04-06T11:46:40;17.20;1.00
1181;DHT22;579;52.046;8.532;2023-04-06T11:49:06;17.90;1.00
1181;DHT22;579;52.046;8.532;2023-04-06T11:51:35;18.00;1.00
1181;DHT22;579;52.046;8.532;2023-04-06T11:54:02;18.00;1.00
1181;DHT22;579;52.046;8.532;2023-04-06T12:01:33;17.00;1.00
1181;DHT22;579;52.046;8.532;2023-04-06T12:04:00;16.80;1.00
1181;DHT22;579;52.046;8.532;2023-04-06T12:06:27;16.80;1.00
1181;DHT22;579;52.046;8.532;2023-04-06T12:08:53;16.80;1.00
1181;DHT22;579;52.046;8.532;2023-04-06T12:11:19;16.80;1.00
1181;DHT22;579;52.046;8.532;2023-04-06T12:13:47;16.70;1.00
1181;DHT22;579;52.046;8.532;2023-04-06T12:16:13;16.90;1.00
1181;DHT22;579;52.046;8.532;2023-04-06T12:21:35;18.20;1.00
1181;DHT22;579;52.046;8.532;2023-04-06T12:24:02;18.20;1.00
1181;DHT22;579;52.046;8.532;2023-04-06T12:26:29;18.30;1.00
1181;DHT22;579;52.046;8.532;2023-04-06T12:28:56;19.00;1.00
1181;DHT22;579;52.046;8.532;2023-04-06T12:31:24;19.60;1.00
1181;DHT22;579;52.046;8.532;2023-04-06T12:33:51;19.90;1.00
1181;DHT22;579;52.046;8.532;2023-04-06T12:36:19;20.70;1.00
1181;DHT22;579;52.046;8.532;2023-04-06T12:38:48;21.40;1.00
1181;DHT22;579;52.046;8.532;2023-04-06T12:43:53;21.60;1.00
1181;DHT22;579;52.046;8.532;2023-04-06T12:46:20;21.00;1.00
1181;DHT22;579;52.046;8.532;2023-04-06T12:48:46;20.90;1.00
1181;DHT22;579;52.046;8.532;2023-04-06T12:51:13;20.70;1.00
1181;DHT22;579;52.046;8.532;2023-04-06T12:53:40;21.10;1.00
1181;DHT22;579;52.046;8.532;2023-04-06T12:56:12;21.70;1.00
1181;DHT22;579;52.046;8.532;2023-04-06T12:58:39;21.90;1.00
1181;DHT22;579;52.046;8.532;2023-04-06T13:06:07;22.70;1.00
1181;DHT22;579;52.046;8.532;2023-04-06T13:08:34;21.50;1.00
1181;DHT22;579;52.046;8.532;2023-04-06T13:16:00;21.50;1.00
1181;DHT22;579;52.046;8.532;2023-04-06T13:28:29;19.80;1.00
1181;DHT22;579;52.046;8.532;2023-04-06T13:30:57;19.80;1.00
1181;DHT22;579;52.046;8.532;2023-04-06T13:33:24;19.20;1.00
1181;DHT22;579;52.046;8.532;2023-04-06T13:38:17;20.20;1.00
1181;DHT22;579;52.046;8.532;2023-04-06T13:40:44;20.00;1.00
1181;DHT22;579;52.046;8.532;2023-04-06T13:43:10;20.30;1.00
1181;DHT22;579;52.046;8.532;2023-04-06T13:48:17;19.70;1.00
1181;DHT22;579;52.046;8.532;2023-04-06T13:50:44;19.10;1.00
1181;DHT22;579;52.046;8.532;2023-04-06T13:58:04;19.50;1.00
1181;DHT22;579;52.046;8.532;2023-04-06T14:00:30;19.40;1.00
1181;DHT22;579;52.046;8.532;2023-04-06T14:10:28;20.50;1.00
1181;DHT22;579;52.046;8.532;2023-04-06T14:12:55;19.90;1.00
1181;DHT22;579;52.046;8.532;2023-04-06T14:15:22;19.30;1.00
1181;DHT22;579;52.046;8.532;2023-04-06T14:20:16;18.40;1.00
1181;DHT22;579;52.046;8.532;2023-04-06T14:30:27;18.70;1.00
1181;DHT22;579;52.046;8.532;2023-04-06T14:32:56;17.70;1.00
1181;DHT22;579;52.046;8.532;2023-04-06T14:37:50;17.10;1.00
1181;DHT22;579;52.046;8.532;2023-04-06T14:42:43;17.10;1.00
1181;DHT22;579;52.046;8.532;2023-04-06T14:50:24;18.20;1.00
1181;DHT22;579;52.046;8.532;2023-04-06T14:52:51;18.40;1.00
1181;DHT22;579;52.046;8.532;2023-04-06T14:55:17;19.20;1.00
1181;DHT22;579;52.046;8.532;2023-04-06T15:00:11;19.90;1.00
1181;DHT22;579;52.046;8.532;2023-04-06T15:02:39;20.60;1.00
1181;DHT22;579;52.046;8.532;2023-04-06T15:05:06;20.90;1.00
1181;DHT22;579;52.046;8.532;2023-04-06T15:10:15;20.80;1.00
1181;DHT22;579;52.046;8.532;2023-04-06T15:12:42;20.40;1.00
1181;DHT22;579;52.046;8.532;2023-04-06T15:15:09;20.60;1.00
1181;DHT22;579;52.046;8.532;2023-04-06T15:17:36;20.20;1.00
1181;DHT22;579;52.046;8.532;2023-04-06T15:20:02;20.20;1.00
1181;DHT22;579;52.046;8.532;2023-04-06T15:22:29;19.50;1.00
1181;DHT22;579;52.046;8.532;2023-04-06T15:24:55;19.10;1.00
1181;DHT22;579;52.046;8.532;2023-04-06T15:32:26;19.20;1.00
1181;DHT22;579;52.046;8.532;2023-04-06T15:34:53;19.10;1.00
1181;DHT22;579;52.046;8.532;2023-04-06T15:37:19;18.70;1.00
1181;DHT22;579;52.046;8.532;2023-04-06T15:39:45;18.20;1.00
1181;DHT22;579;52.046;8.532;2023-04-06T15:42:11;18.10;1.00
1181;DHT22;579;52.046;8.532;2023-04-06T15:44:38;18.20;1.00
1181;DHT22;579;52.046;8.532;2023-04-06T15:47:04;18.60;1.00
1181;DHT22;579;52.046;8.532;2023-04-06T15:49:31;18.40;1.00
1181;DHT22;579;52.046;8.532;2023-04-06T15:56:33;17.20;1.00
1181;DHT22;579;52.046;8.532;2023-04-06T15:58:59;16.90;1.00
1181;DHT22;579;52.046;8.532;2023-04-06T16:01:26;16.90;1.00
1181;DHT22;579;52.046;8.532;2023-04-06T16:03:52;16.90;1.00
1181;DHT22;579;52.046;8.532;2023-04-06T16:06:18;16.60;1.00
1181;DHT22;579;52.046;8.532;2023-04-06T16:08:44;16.90;1.00
1181;DHT22;579;52.046;8.532;2023-04-06T16:11:11;16.40;1.00
1181;DHT22;579;52.046;8.532;2023-04-06T16:18:43;16.20;1.00
1181;DHT22;579;52.046;8.532;2023-04-06T16:21:14;16.50;1.00
1181;DHT22;579;52.046;8.532;2023-04-06T16:23:42;16.00;1.00
1181;DHT22;579;52.046;8.532;2023-04-06T16:26:10;16.00;1.00
1181;DHT22;579;52.046;8.532;2023-04-06T16:28:37;16.10;1.00
1181;DHT22;579;52.046;8.532;2023-04-06T16:31:04;16.10;1.00
1181;DHT22;579;52.046;8.532;2023-04-06T16:33:30;16.10;1.00
1181;DHT22;579;52.046;8.532;2023-04-06T16:41:02;16.40;1.00
1181;DHT22;579;52.046;8.532;2023-04-06T16:43:28;16.60;1.00
1181;DHT22;579;52.046;8.532;2023-04-06T16:45:54;16.70;1.00
1181;DHT22;579;52.046;8.532;2023-04-06T16:48:21;16.40;1.00
1181;DHT22;579;52.046;8.532;2023-04-06T16:50:48;16.40;1.00
1181;DHT22;579;52.046;8.532;2023-04-06T16:53:15;16.40;1.00
1181;DHT22;579;52.046;8.532;2023-04-06T16:55:41;16.60;1.00
1181;DHT22;579;52.046;8.532;2023-04-06T17:00:46;18.60;1.00
1181;DHT22;579;52.046;8.532;2023-04-06T17:03:12;16.20;1.00
1181;DHT22;579;52.046;8.532;2023-04-06T17:05:38;15.90;1.00
1181;DHT22;579;52.046;8.532;2023-04-06T17:08:05;15.80;1.00
1181;DHT22;579;52.046;8.532;2023-04-06T17:10:31;15.60;1.00
1181;DHT22;579;52.046;8.532;2023-04-06T17:12:57;16.00;1.00
1181;DHT22;579;52.046;8.532;2023-04-06T17:15:24;15.90;1.00
1181;DHT22;579;52.046;8.532;2023-04-06T17:21:35;15.50;1.00
1181;DHT22;579;52.046;8.532;2023-04-06T17:24:02;15.90;1.00
1181;DHT22;579;52.046;8.532;2023-04-06T17:26:28;16.10;1.00
1181;DHT22;579;52.046;8.532;2023-04-06T17:28:54;15.50;1.00
1181;DHT22;579;52.046;8.532;2023-04-06T17:31:21;15.60;1.00
1181;DHT22;579;52.046;8.532;2023-04-06T17:33:47;15.40;1.00
1181;DHT22;579;52.046;8.532;2023-04-06T17:36:14;15.00;1.00
1181;DHT22;579;52.046;8.532;2023-04-06T17:41:23;15.10;1.00
1181;DHT22;579;52.046;8.532;2023-04-06T17:43:49;14.60;1.00
1181;DHT22;579;52.046;8.532;2023-04-06T17:46:16;14.50;1.00
1181;DHT22;579;52.046;8.532;2023-04-06T17:48:42;13.70;1.00
1181;DHT22;579;52.046;8.532;2023-04-06T17:51:08;14.60;1.00
1181;DHT22;579;52.046;8.532;2023-04-06T17:53:38;14.30;1.00
1181;DHT22;579;52.046;8.532;2023-04-06T17:56:05;14.10;1.00
1181;DHT22;579;52.046;8.532;2023-04-06T18:03:06;14.20;1.00
1181;DHT22;579;52.046;8.532;2023-04-06T18:05:32;14.20;1.00
1181;DHT22;579;52.046;8.532;2023-04-06T18:07:58;14.10;1.00
1181;DHT22;579;52.046;8.532;2023-04-06T18:10:25;14.10;1.00
1181;DHT22;579;52.046;8.532;2023-04-06T18:12:51;14.20;1.00
1181;DHT22;579;52.046;8.532;2023-04-06T18:15:17;14.10;1.00
1181;DHT22;579;52.046;8.532;2023-04-06T18:17:44;13.90;1.00
1181;DHT22;579;52.046;8.532;2023-04-06T18:24:06;14.00;1.00
1181;DHT22;579;52.046;8.532;2023-04-06T18:26:33;13.60;1.00
1181;DHT22;579;52.046;8.532;2023-04-06T18:29:00;13.40;1.00
1181;DHT22;579;52.046;8.532;2023-04-06T18:31:26;14.00;1.00
1181;DHT22;579;52.046;8.532;2023-04-06T18:33:53;13.90;1.00
1181;DHT22;579;52.046;8.532;2023-04-06T18:36:19;14.40;1.00
1181;DHT22;579;52.046;8.532;2023-04-06T18:38:47;14.70;1.00
1181;DHT22;579;52.046;8.532;2023-04-06T18:45:06;14.70;1.00
1181;DHT22;579;52.046;8.532;2023-04-06T18:47:33;14.40;1.00
1181;DHT22;579;52.046;8.532;2023-04-06T18:50:00;14.40;1.00
1181;DHT22;579;52.046;8.532;2023-04-06T18:52:26;14.70;1.00
1181;DHT22;579;52.046;8.532;2023-04-06T18:54:53;14.60;1.00
1181;DHT22;579;52.046;8.532;2023-04-06T18:57:20;14.10;1.00
1181;DHT22;579;52.046;8.532;2023-04-06T18:59:46;13.60;1.00
1181;DHT22;579;52.046;8.532;2023-04-06T19:06:06;13.40;1.00
1181;DHT22;579;52.046;8.532;2023-04-06T19:08:32;13.40;1.00
1181;DHT22;579;52.046;8.532;2023-04-06T19:11:04;13.20;1.00
1181;DHT22;579;52.046;8.532;2023-04-06T19:13:32;13.40;1.00
1181;DHT22;579;52.046;8.532;2023-04-06T19:15:58;13.20;1.00
1181;DHT22;579;52.046;8.532;2023-04-06T19:18:25;13.10;1.00
1181;DHT22;579;52.046;8.532;2023-04-06T19:20:52;13.00;1.00
1181;DHT22;579;52.046;8.532;2023-04-06T19:28:06;12.90;1.00
1181;DHT22;579;52.046;8.532;2023-04-06T19:30:35;13.10;1.00
1181;DHT22;579;52.046;8.532;2023-04-06T19:33:01;12.60;1.00
1181;DHT22;579;52.046;8.532;2023-04-06T19:35:28;13.00;1.00
1181;DHT22;579;52.046;8.532;2023-04-06T19:37:54;12.60;1.00
1181;DHT22;579;52.046;8.532;2023-04-06T19:40:21;12.90;1.00
1181;DHT22;579;52.046;8.532;2023-04-06T19:42:47;13.10;1.00
1181;DHT22;579;52.046;8.532;2023-04-06T19:49:37;12.80;1.00
1181;DHT22;579;52.046;8.532;2023-04-06T19:52:05;12.90;1.00
1181;DHT22;579;52.046;8.532;2023-04-06T19:54:32;13.30;1.00
1181;DHT22;579;52.046;8.532;2023-04-06T19:57:00;13.50;1.00
1181;DHT22;579;52.046;8.532;2023-04-06T19:59:28;13.30;1.00
1181;DHT22;579;52.046;8.532;2023-04-06T20:01:55;12.50;1.00
1181;DHT22;579;52.046;8.532;2023-04-06T20:04:22;12.40;1.00
1181;DHT22;579;52.046;8.532;2023-04-06T20:09:29;12.20;1.00
1181;DHT22;579;52.046;8.532;2023-04-06T20:11:55;12.50;1.00
1181;DHT22;579;52.046;8.532;2023-04-06T20:14:21;12.70;1.00
1181;DHT22;579;52.046;8.532;2023-04-06T20:16:48;12.40;1.00
1181;DHT22;579;52.046;8.532;2023-04-06T20:19:15;12.10;1.00
1181;DHT22;579;52.046;8.532;2023-04-06T20:21:41;11.90;1.00
1181;DHT22;579;52.046;8.532;2023-04-06T20:24:08;11.80;1.00
1181;DHT22;579;52.046;8.532;2023-04-06T20:31:40;11.90;1.00
1181;DHT22;579;52.046;8.532;2023-04-06T20:34:07;11.40;1.00
1181;DHT22;579;52.046;8.532;2023-04-06T20:36:33;11.90;1.00
1181;DHT22;579;52.046;8.532;2023-04-06T20:39:00;12.00;1.00
1181;DHT22;579;52.046;8.532;2023-04-06T20:41:26;12.00;1.00
1181;DHT22;579;52.046;8.532;2023-04-06T20:43:52;11.90;1.00
1181;DHT22;579;52.046;8.532;2023-04-06T20:46:21;11.30;1.00
1181;DHT22;579;52.046;8.532;2023-04-06T20:53:58;11.10;1.00
1181;DHT22;579;52.046;8.532;2023-04-06T20:56:25;11.20;1.00
1181;DHT22;579;52.046;8.532;2023-04-06T20:58:51;11.00;1.00
1181;DHT22;579;52.046;8.532;2023-04-06T21:01:18;11.60;1.00
1181;DHT22;579;52.046;8.532;2023-04-06T21:03:45;11.90;1.00
1181;DHT22;579;52.046;8.532;2023-04-06T21:06:11;11.50;1.00
1181;DHT22;579;52.046;8.532;2023-04-06T21:08:37;11.40;1.00
1181;DHT22;579;52.046;8.532;2023-04-06T21:13:54;11.50;1.00
1181;DHT22;579;52.046;8.532;2023-04-06T21:16:20;11.80;1.00
1181;DHT22;579;52.046;8.532;2023-04-06T21:18:46;11.50;1.00
1181;DHT22;579;52.046;8.532;2023-04-06T21:21:13;12.50;1.00
1181;DHT22;579;52.046;8.532;2023-04-06T21:23:39;11.90;1.00
1181;DHT22;579;52.046;8.532;2023-04-06T21:26:05;11.90;1.00
1181;DHT22;579;52.046;8.532;2023-04-06T21:28:32;12.40;1.00
1181;DHT22;579;52.046;8.532;2023-04-06T21:36:07;11.60;1.00